Time;durP1;ratioP1;P1;durP2;ratioP2;P2;SDS_P1;SDS_P2;PMS_P1;PMS_P2;Temp;Humidity;BMP_temperature;BMP_pressure;BME280_temperature;BME280_humidity;BME280_pressure;Samples;Min_cycle;Max_cycle;Signal;HPM_P1;HPM_P2
2024/02/11 00:02:16;;;;;;;12.07;10.82;;;;;;;;;;5066904;28;20177;-84
2024/02/11 00:04:43;;;;;;;13.75;9.70;;;;;;;;;;5047203;28;20599;-85
2024/02/11 00:07:09;;;;;;;12.77;10.18;;;;;;;;;;5068292;28;20189;-84
2024/02/11 00:09:35;;;;;;;15.98;11.00;;;;;;;;;;5069163;28;20219;-84
2024/02/11 00:12:01;;;;;;;14.48;11.73;;;;;;;;;;5067189;28;20536;-86
2024/02/11 00:14:27;;;;;;;16.95;11.85;;;;;;;;;;5069635;28;20185;-84
2024/02/11 00:16:59;;;;;;;14.43;10.60;;;;;;;;;;5048681;28;20224;-86
2024/02/11 00:19:25;;;;;;;12.48;11.20;;;;;;;;;;5067657;28;20416;-86
2024/02/11 00:21:51;;;;;;;12.20;10.68;;;;;;;;;;5054545;28;20242;-85
2024/02/11 00:24:19;;;;;;;15.90;10.47;;;;;;;;;;5047353;28;20656;-85
2024/02/11 00:26:45;;;;;;;14.40;11.98;;;;;;;;;;5068478;28;20484;-87
2024/02/11 00:29:12;;;;;;;14.95;11.90;;;;;;;;;;5036391;28;20185;-85
2024/02/11 00:31:38;;;;;;;13.30;11.88;;;;;;;;;;5061499;28;20184;-85
2024/02/11 00:34:04;;;;;;;15.70;11.77;;;;;;;;;;5052718;28;20264;-85
2024/02/11 00:36:30;;;;;;;15.93;11.43;;;;;;;;;;5045679;28;20219;-84
2024/02/11 00:38:56;;;;;;;15.43;12.88;;;;;;;;;;5041438;28;20265;-85
2024/02/11 00:41:22;;;;;;;20.37;13.67;;;;;;;;;;5049741;28;20223;-85
2024/02/11 00:43:50;;;;;;;16.88;14.80;;;;;;;;;;5074142;28;20425;-85
2024/02/11 00:46:16;;;;;;;17.05;14.80;;;;;;;;;;5056720;28;20189;-85
2024/02/11 00:48:45;;;;;;;18.42;15.20;;;;;;;;;;5067694;28;20168;-85
2024/02/11 00:51:11;;;;;;;24.80;15.70;;;;;;;;;;5042279;28;20512;-84
2024/02/11 00:53:37;;;;;;;20.10;16.23;;;;;;;;;;5066003;28;20184;-85
2024/02/11 00:56:03;;;;;;;18.47;15.73;;;;;;;;;;5043347;28;20517;-84
2024/02/11 00:58:32;;;;;;;27.48;17.42;;;;;;;;;;5043351;28;20926;-85
2024/02/11 01:00:59;;;;;;;23.60;18.33;;;;;;;;;;5070025;28;20749;-85
2024/02/11 01:03:25;;;;;;;22.80;17.90;;;;;;;;;;5033142;28;20616;-84
2024/02/11 01:05:52;;;;;;;24.17;16.70;;;;;;;;;;5051608;28;20624;-84
2024/02/11 01:08:18;;;;;;;23.73;17.67;;;;;;;;;;5067382;28;20186;-84
2024/02/11 01:10:44;;;;;;;22.23;17.77;;;;;;;;;;5044577;28;20250;-85
2024/02/11 01:13:13;;;;;;;23.50;16.27;;;;;;;;;;5045651;28;20194;-84
2024/02/11 01:15:39;;;;;;;21.17;17.08;;;;;;;;;;5050138;28;20173;-84
2024/02/11 01:18:06;;;;;;;21.40;17.73;;;;;;;;;;5066376;28;20521;-84
2024/02/11 01:20:32;;;;;;;22.58;18.23;;;;;;;;;;5066982;28;20184;-84
2024/02/11 01:23:00;;;;;;;22.10;17.25;;;;;;;;;;5049449;28;20186;-85
2024/02/11 01:25:26;;;;;;;23.90;18.27;;;;;;;;;;5054599;28;20177;-84
2024/02/11 01:27:52;;;;;;;20.10;16.33;;;;;;;;;;5046373;28;20706;-84
2024/02/11 01:30:19;;;;;;;23.95;19.00;;;;;;;;;;5034699;28;20188;-84
2024/02/11 01:32:45;;;;;;;22.75;18.00;;;;;;;;;;5047637;28;20173;-84
2024/02/11 01:35:12;;;;;;;22.15;17.65;;;;;;;;;;5053271;28;20259;-85
2024/02/11 01:37:42;;;;;;;21.75;17.67;;;;;;;;;;5050322;28;20550;-84
2024/02/11 01:40:17;;;;;;;24.70;17.42;;;;;;;;;;5063664;28;20609;-84
2024/02/11 01:42:45;;;;;;;23.83;17.63;;;;;;;;;;5063649;28;20223;-84
2024/02/11 01:45:12;;;;;;;22.63;17.27;;;;;;;;;;5050795;28;20583;-84
2024/02/11 01:47:38;;;;;;;21.73;16.00;;;;;;;;;;5070538;28;20181;-84
2024/02/11 01:50:15;;;;;;;22.40;16.67;;;;;;;;;;5032921;28;20595;-84
2024/02/11 01:52:41;;;;;;;21.35;15.77;;;;;;;;;;5060980;28;20416;-84
2024/02/11 01:55:12;;;;;;;20.92;14.85;;;;;;;;;;5065076;28;20204;-84
2024/02/11 01:57:39;;;;;;;19.95;14.32;;;;;;;;;;5045495;28;20853;-84
2024/02/11 02:00:05;;;;;;;28.38;13.68;;;;;;;;;;5048919;28;20280;-84
2024/02/11 02:02:31;;;;;;;19.67;15.57;;;;;;;;;;5065790;28;20176;-84
2024/02/11 02:04:59;;;;;;;20.75;14.05;;;;;;;;;;5045665;28;20640;-84
2024/02/11 02:07:25;;;;;;;16.52;12.57;;;;;;;;;;5048990;28;20315;-85
2024/02/11 02:09:53;;;;;;;18.67;12.85;;;;;;;;;;5035451;28;20264;-85
2024/02/11 02:12:20;;;;;;;16.38;13.00;;;;;;;;;;5052627;28;20181;-84
2024/02/11 02:14:47;;;;;;;14.93;12.02;;;;;;;;;;5038107;28;20256;-84
2024/02/11 02:17:13;;;;;;;22.02;13.20;;;;;;;;;;5058510;28;20591;-84
2024/02/11 02:19:39;;;;;;;15.07;12.60;;;;;;;;;;5050890;28;20257;-84
2024/02/11 02:22:06;;;;;;;14.60;13.00;;;;;;;;;;5074408;28;20903;-84
2024/02/11 02:24:32;;;;;;;13.65;12.15;;;;;;;;;;5066429;28;20910;-84
2024/02/11 02:26:58;;;;;;;14.57;12.32;;;;;;;;;;5067913;28;20229;-84
2024/02/11 02:29:24;;;;;;;12.83;11.27;;;;;;;;;;5047663;28;20235;-84
2024/02/11 02:31:50;;;;;;;13.73;11.30;;;;;;;;;;5069076;28;20424;-84
2024/02/11 02:34:16;;;;;;;16.10;12.87;;;;;;;;;;5066568;28;20875;-84
2024/02/11 02:36:42;;;;;;;16.10;11.10;;;;;;;;;;5071116;28;20463;-84
2024/02/11 02:39:10;;;;;;;14.80;11.53;;;;;;;;;;5056475;28;20422;-84
2024/02/11 02:41:36;;;;;;;13.00;11.52;;;;;;;;;;5068330;28;20431;-84
2024/02/11 02:44:02;;;;;;;15.43;12.70;;;;;;;;;;5058634;28;20180;-84
2024/02/11 02:46:30;;;;;;;16.33;12.02;;;;;;;;;;5050235;28;20184;-84
2024/02/11 02:48:56;;;;;;;13.70;11.25;;;;;;;;;;5073864;28;20551;-84
2024/02/11 02:51:22;;;;;;;14.13;11.70;;;;;;;;;;5052526;28;20180;-84
2024/02/11 02:53:51;;;;;;;14.10;11.27;;;;;;;;;;5075569;28;20185;-84
2024/02/11 02:56:18;;;;;;;14.55;11.27;;;;;;;;;;5048845;28;20466;-84
2024/02/11 02:58:44;;;;;;;13.93;11.65;;;;;;;;;;5069239;28;20173;-84
2024/02/11 03:01:17;;;;;;;17.13;12.00;;;;;;;;;;5073033;28;20175;-84
2024/02/11 03:03:46;;;;;;;15.30;11.68;;;;;;;;;;5051547;28;20184;-84
2024/02/11 03:06:12;;;;;;;14.27;11.27;;;;;;;;;;5072453;28;20176;-84
2024/02/11 03:08:38;;;;;;;14.32;11.30;;;;;;;;;;5060782;28;20231;-84
2024/02/11 03:11:04;;;;;;;18.13;11.85;;;;;;;;;;5064655;28;20188;-84
2024/02/11 03:13:30;;;;;;;11.00;9.57;;;;;;;;;;5048963;28;20527;-84
2024/02/11 03:15:58;;;;;;;15.20;10.67;;;;;;;;;;5051692;28;20494;-84
2024/02/11 03:18:24;;;;;;;11.75;10.05;;;;;;;;;;5068945;28;20417;-84
2024/02/11 03:20:53;;;;;;;13.60;10.18;;;;;;;;;;5032191;28;20186;-84
2024/02/11 03:23:19;;;;;;;13.82;10.75;;;;;;;;;;5063731;28;20184;-84
2024/02/11 03:25:45;;;;;;;12.63;10.50;;;;;;;;;;5046874;28;20188;-84
2024/02/11 03:28:13;;;;;;;13.43;9.50;;;;;;;;;;5068419;28;20470;-84
2024/02/11 03:30:39;;;;;;;14.63;10.18;;;;;;;;;;5048782;28;20446;-84
2024/02/11 03:33:05;;;;;;;12.50;10.00;;;;;;;;;;5044223;28;20200;-84
2024/02/11 03:35:31;;;;;;;16.67;10.20;;;;;;;;;;5047506;28;20173;-84
2024/02/11 03:37:57;;;;;;;12.70;9.17;;;;;;;;;;5041718;28;20577;-84
2024/02/11 03:40:24;;;;;;;10.80;8.60;;;;;;;;;;5034898;28;20546;-84
2024/02/11 03:42:50;;;;;;;12.82;9.10;;;;;;;;;;5032619;28;20425;-84
2024/02/11 03:45:18;;;;;;;12.10;8.30;;;;;;;;;;5056818;28;20222;-84
2024/02/11 03:47:44;;;;;;;10.73;9.10;;;;;;;;;;5050289;28;20184;-84
2024/02/11 03:50:10;;;;;;;10.20;8.50;;;;;;;;;;5070727;28;20169;-84
2024/02/11 03:52:37;;;;;;;10.20;8.57;;;;;;;;;;5048893;28;20432;-84
2024/02/11 03:55:05;;;;;;;11.77;7.80;;;;;;;;;;5034709;28;20189;-84
2024/02/11 03:57:31;;;;;;;8.40;7.15;;;;;;;;;;5062234;28;20201;-84
2024/02/11 03:59:57;;;;;;;10.98;7.65;;;;;;;;;;5061844;28;20173;-84
2024/02/11 04:02:23;;;;;;;9.63;7.23;;;;;;;;;;5047136;28;20185;-84
2024/02/11 04:04:49;;;;;;;7.70;6.90;;;;;;;;;;5046519;28;20494;-84
2024/02/11 04:07:16;;;;;;;7.88;6.97;;;;;;;;;;5069788;28;20188;-84
2024/02/11 04:09:42;;;;;;;8.55;6.75;;;;;;;;;;5070108;28;20180;-84
2024/02/11 04:12:08;;;;;;;7.53;6.47;;;;;;;;;;5042610;28;20187;-84
2024/02/11 04:14:34;;;;;;;9.20;7.05;;;;;;;;;;5072329;28;20520;-84
2024/02/11 04:17:02;;;;;;;7.70;6.90;;;;;;;;;;5066617;28;20220;-84
2024/02/11 04:19:32;;;;;;;7.00;6.30;;;;;;;;;;5050856;28;20167;-84
2024/02/11 04:21:58;;;;;;;7.90;7.10;;;;;;;;;;5053129;28;20618;-84
2024/02/11 04:24:28;;;;;;;6.88;5.85;;;;;;;;;;5069198;28;20199;-84
2024/02/11 04:26:54;;;;;;;9.60;6.67;;;;;;;;;;5009022;28;1073071;-84
2024/02/11 04:29:20;;;;;;;8.40;6.55;;;;;;;;;;5043145;28;20193;-84
2024/02/11 04:31:46;;;;;;;9.10;6.80;;;;;;;;;;5029365;28;20186;-85
2024/02/11 04:34:14;;;;;;;8.27;6.93;;;;;;;;;;5055947;28;20445;-85
2024/02/11 04:36:41;;;;;;;7.68;6.30;;;;;;;;;;5034249;28;20192;-85
2024/02/11 04:39:08;;;;;;;8.88;7.70;;;;;;;;;;5033351;28;20209;-84
2024/02/11 04:41:39;;;;;;;8.80;7.35;;;;;;;;;;5045379;28;20177;-85
2024/02/11 04:44:08;;;;;;;8.68;7.57;;;;;;;;;;5067301;28;20176;-84
2024/02/11 04:46:34;;;;;;;8.65;7.20;;;;;;;;;;5070474;28;20248;-84
2024/02/11 04:49:00;;;;;;;8.95;6.30;;;;;;;;;;5052494;28;20248;-84
2024/02/11 04:51:28;;;;;;;9.00;6.90;;;;;;;;;;5045179;28;20177;-84
2024/02/11 04:53:57;;;;;;;7.30;5.40;;;;;;;;;;5049279;28;20176;-85
2024/02/11 04:56:23;;;;;;;5.13;4.18;;;;;;;;;;5068212;28;20705;-84
2024/02/11 04:58:50;;;;;;;4.97;4.35;;;;;;;;;;5062685;28;20260;-85
2024/02/11 05:01:16;;;;;;;4.45;3.72;;;;;;;;;;5039681;28;20641;-85
2024/02/11 05:03:46;;;;;;;5.60;5.00;;;;;;;;;;5049390;28;20559;-85
2024/02/11 05:06:12;;;;;;;2.50;1.73;;;;;;;;;;5046210;28;20184;-85
2024/02/11 05:08:38;;;;;;;0.95;0.80;;;;;;;;;;5067889;28;20203;-85
2024/02/11 05:11:05;;;;;;;0.80;0.50;;;;;;;;;;5064178;28;20188;-86
2024/02/11 05:13:32;;;;;;;1.70;0.90;;;;;;;;;;5049381;28;20880;-86
2024/02/11 05:16:01;;;;;;;2.08;0.70;;;;;;;;;;5066790;28;20170;-85
2024/02/11 05:18:29;;;;;;;2.42;0.95;;;;;;;;;;5044569;28;20219;-86
2024/02/11 05:20:58;;;;;;;4.22;1.13;;;;;;;;;;5050551;28;20609;-85
2024/02/11 05:23:24;;;;;;;6.15;1.80;;;;;;;;;;5053933;28;20177;-85
2024/02/11 05:25:51;;;;;;;3.30;1.42;;;;;;;;;;5067707;28;20184;-85
2024/02/11 05:28:19;;;;;;;5.60;1.60;;;;;;;;;;5051189;28;20261;-85
2024/02/11 05:30:45;;;;;;;5.50;1.58;;;;;;;;;;5031317;28;20186;-85
2024/02/11 05:33:18;;;;;;;3.53;1.80;;;;;;;;;;5045199;28;20181;-85
2024/02/11 05:35:44;;;;;;;4.38;2.53;;;;;;;;;;5031313;28;20181;-85
2024/02/11 05:38:10;;;;;;;6.45;2.08;;;;;;;;;;5042032;28;20211;-84
2024/02/11 05:40:45;;;;;;;5.97;2.05;;;;;;;;;;5048249;28;20179;-85
2024/02/11 05:43:12;;;;;;;5.70;2.70;;;;;;;;;;5038595;28;20183;-85
2024/02/11 05:45:38;;;;;;;4.07;1.77;;;;;;;;;;5042062;28;20532;-85
2024/02/11 05:48:05;;;;;;;4.65;1.70;;;;;;;;;;5046746;28;20264;-85
2024/02/11 05:50:31;;;;;;;12.07;2.42;;;;;;;;;;5043139;28;20170;-85
2024/02/11 05:52:58;;;;;;;10.03;2.40;;;;;;;;;;5044529;28;20691;-85
2024/02/11 05:55:24;;;;;;;4.13;1.95;;;;;;;;;;5041996;28;20924;-84
2024/02/11 05:57:51;;;;;;;4.65;2.33;;;;;;;;;;5044980;28;20206;-84
2024/02/11 06:00:21;;;;;;;3.90;2.10;;;;;;;;;;5048580;28;20427;-85
2024/02/11 06:02:48;;;;;;;6.70;2.35;;;;;;;;;;5050023;28;20231;-84
2024/02/11 06:05:14;;;;;;;6.50;2.33;;;;;;;;;;5039534;28;20246;-84
2024/02/11 06:07:41;;;;;;;5.72;1.80;;;;;;;;;;5039144;28;20213;-84
2024/02/11 06:10:11;;;;;;;7.55;2.72;;;;;;;;;;5040063;28;20568;-84
2024/02/11 06:12:37;;;;;;;4.43;2.15;;;;;;;;;;5040334;28;20217;-84
2024/02/11 06:15:10;;;;;;;9.02;2.90;;;;;;;;;;5044517;28;20505;-84
2024/02/11 06:17:36;;;;;;;6.95;2.58;;;;;;;;;;5046527;28;20204;-84
2024/02/11 06:20:03;;;;;;;8.27;3.17;;;;;;;;;;5041583;28;20192;-84
2024/02/11 06:22:29;;;;;;;6.88;3.00;;;;;;;;;;5051178;28;20442;-85
2024/02/11 06:24:56;;;;;;;7.90;3.47;;;;;;;;;;5020900;28;20579;-84
2024/02/11 06:27:22;;;;;;;8.35;3.30;;;;;;;;;;5044980;28;20255;-84
2024/02/11 06:29:48;;;;;;;12.15;5.13;;;;;;;;;;5038818;28;20181;-84
2024/02/11 06:32:14;;;;;;;9.18;4.18;;;;;;;;;;5046936;28;20185;-84
2024/02/11 06:34:40;;;;;;;11.77;2.83;;;;;;;;;;5028576;28;20363;-84
2024/02/11 06:37:06;;;;;;;7.47;2.80;;;;;;;;;;5027243;28;20220;-84
2024/02/11 06:39:32;;;;;;;6.93;2.73;;;;;;;;;;5046587;28;20442;-84
2024/02/11 06:42:02;;;;;;;7.53;2.97;;;;;;;;;;5050913;28;20880;-84
2024/02/11 06:44:29;;;;;;;7.47;3.25;;;;;;;;;;5045912;28;20455;-85
2024/02/11 06:46:56;;;;;;;8.13;2.90;;;;;;;;;;5044597;28;20591;-84
2024/02/11 06:49:25;;;;;;;6.75;3.20;;;;;;;;;;5050545;28;20166;-85
2024/02/11 06:51:52;;;;;;;7.25;2.90;;;;;;;;;;5032763;28;20185;-84
2024/02/11 06:54:18;;;;;;;5.38;2.95;;;;;;;;;;5044702;28;20230;-84
2024/02/11 06:56:47;;;;;;;5.75;2.65;;;;;;;;;;5045736;28;20252;-84
2024/02/11 06:59:13;;;;;;;7.38;3.17;;;;;;;;;;5044002;28;20180;-84
2024/02/11 07:01:41;;;;;;;5.18;2.35;;;;;;;;;;5048200;28;20592;-84
2024/02/11 07:04:08;;;;;;;7.82;2.38;;;;;;;;;;5053772;28;20268;-84
2024/02/11 07:06:35;;;;;;;4.35;2.78;;;;;;;;;;5055873;28;20188;-84
2024/02/11 07:09:01;;;;;;;6.43;2.85;;;;;;;;;;5051934;28;20770;-84
2024/02/11 07:11:28;;;;;;;5.60;2.72;;;;;;;;;;5043130;28;20174;-84
2024/02/11 07:13:54;;;;;;;5.55;2.70;;;;;;;;;;5052063;28;20196;-84
2024/02/11 07:16:21;;;;;;;6.10;2.30;;;;;;;;;;5043820;28;20265;-84
2024/02/11 07:18:47;;;;;;;7.55;3.05;;;;;;;;;;5047983;28;20222;-84
2024/02/11 07:21:13;;;;;;;9.00;3.97;;;;;;;;;;5042411;28;20174;-85
2024/02/11 07:23:40;;;;;;;6.20;3.03;;;;;;;;;;5044408;28;20422;-85
2024/02/11 07:26:07;;;;;;;4.88;2.95;;;;;;;;;;5054278;28;20411;-84
2024/02/11 07:28:34;;;;;;;11.45;4.25;;;;;;;;;;5046008;28;20234;-84
2024/02/11 07:31:00;;;;;;;7.93;4.20;;;;;;;;;;5035209;28;20178;-85
2024/02/11 07:33:26;;;;;;;6.88;3.50;;;;;;;;;;5050808;28;20575;-85
2024/02/11 07:35:52;;;;;;;6.13;3.73;;;;;;;;;;5045741;28;20189;-84
2024/02/11 07:38:18;;;;;;;6.95;3.63;;;;;;;;;;5023970;28;20974;-86
2024/02/11 07:40:45;;;;;;;8.17;3.57;;;;;;;;;;5046777;28;20273;-86
2024/02/11 07:43:11;;;;;;;6.80;3.75;;;;;;;;;;5049740;28;20519;-84
2024/02/11 07:45:38;;;;;;;5.25;3.08;;;;;;;;;;5045553;28;20219;-83
2024/02/11 07:48:07;;;;;;;10.00;3.80;;;;;;;;;;5046230;28;20257;-84
2024/02/11 07:50:34;;;;;;;9.20;3.45;;;;;;;;;;5047657;28;20174;-82
2024/02/11 07:53:00;;;;;;;12.02;4.05;;;;;;;;;;5047335;28;20181;-84
2024/02/11 07:55:26;;;;;;;6.00;3.60;;;;;;;;;;5061210;28;20642;-84
2024/02/11 07:57:52;;;;;;;7.95;3.83;;;;;;;;;;5027544;28;20228;-84
2024/02/11 08:00:21;;;;;;;11.80;4.45;;;;;;;;;;5052621;28;20186;-84
2024/02/11 08:02:47;;;;;;;6.72;3.90;;;;;;;;;;5050986;28;20180;-82
2024/02/11 08:05:13;;;;;;;5.73;3.83;;;;;;;;;;5054013;28;20193;-83
2024/02/11 08:07:39;;;;;;;8.35;3.60;;;;;;;;;;5045576;28;20433;-83
2024/02/11 08:10:07;;;;;;;5.57;3.20;;;;;;;;;;5053349;28;20217;-83
2024/02/11 08:12:33;;;;;;;7.80;4.30;;;;;;;;;;5044169;28;20181;-83
2024/02/11 08:15:00;;;;;;;6.25;3.67;;;;;;;;;;5049385;28;20178;-82
2024/02/11 08:17:26;;;;;;;10.98;4.20;;;;;;;;;;5039634;28;20255;-83
2024/02/11 08:19:52;;;;;;;4.97;3.87;;;;;;;;;;5043897;28;20578;-83
2024/02/11 08:22:18;;;;;;;8.47;4.90;;;;;;;;;;5048232;28;20430;-82
2024/02/11 08:24:46;;;;;;;8.57;4.25;;;;;;;;;;5048299;28;20437;-83
2024/02/11 08:27:12;;;;;;;12.52;4.10;;;;;;;;;;5056110;28;20589;-82
2024/02/11 08:29:38;;;;;;;7.28;4.18;;;;;;;;;;5064085;28;20190;-83
2024/02/11 08:32:04;;;;;;;6.20;3.87;;;;;;;;;;5054558;28;20272;-82
2024/02/11 08:34:31;;;;;;;9.75;4.47;;;;;;;;;;5049631;28;20485;-83
2024/02/11 08:36:57;;;;;;;7.53;3.88;;;;;;;;;;5070011;28;20217;-83
2024/02/11 08:39:25;;;;;;;7.70;3.90;;;;;;;;;;5071447;28;20226;-82
2024/02/11 08:41:52;;;;;;;5.88;3.78;;;;;;;;;;5049281;28;20209;-83
2024/02/11 08:44:18;;;;;;;6.18;3.47;;;;;;;;;;5048934;28;20181;-83
2024/02/11 08:46:44;;;;;;;8.30;3.55;;;;;;;;;;5041211;28;20275;-83
2024/02/11 08:49:11;;;;;;;6.80;3.42;;;;;;;;;;5034798;28;20625;-83
2024/02/11 08:51:38;;;;;;;9.93;4.40;;;;;;;;;;5049748;28;20255;-83
2024/02/11 08:54:04;;;;;;;6.72;4.28;;;;;;;;;;5054963;28;20177;-83
2024/02/11 08:56:31;;;;;;;5.18;3.33;;;;;;;;;;5050442;28;20371;-83
2024/02/11 08:58:57;;;;;;;5.40;3.70;;;;;;;;;;5051640;28;20235;-83
2024/02/11 09:01:23;;;;;;;8.87;4.07;;;;;;;;;;5028849;28;20184;-83
2024/02/11 09:03:49;;;;;;;8.73;3.92;;;;;;;;;;5034867;28;20826;-83
2024/02/11 09:06:15;;;;;;;7.03;3.87;;;;;;;;;;5065349;28;20181;-85
2024/02/11 09:08:41;;;;;;;8.45;4.40;;;;;;;;;;5053238;28;20427;-81
2024/02/11 09:11:09;;;;;;;8.13;3.83;;;;;;;;;;5033687;28;20241;-83
2024/02/11 09:13:35;;;;;;;4.78;3.80;;;;;;;;;;5033424;28;20515;-83
2024/02/11 09:16:01;;;;;;;7.25;4.63;;;;;;;;;;5055204;28;20363;-84
2024/02/11 09:18:28;;;;;;;12.82;4.97;;;;;;;;;;5065359;28;20173;-83
2024/02/11 09:20:53;;;;;;;6.60;4.35;;;;;;;;;;5068218;28;20188;-84
2024/02/11 09:23:19;;;;;;;5.00;4.40;;;;;;;;;;5052199;28;20184;-84
2024/02/11 09:25:45;;;;;;;8.83;4.20;;;;;;;;;;5064425;28;20463;-83
2024/02/11 09:28:11;;;;;;;8.60;4.50;;;;;;;;;;5067779;28;20966;-84
2024/02/11 09:30:42;;;;;;;4.67;3.77;;;;;;;;;;5050610;28;20437;-84
2024/02/11 09:33:08;;;;;;;7.28;4.10;;;;;;;;;;5036865;28;20434;-84
2024/02/11 09:35:33;;;;;;;8.33;4.77;;;;;;;;;;5052218;28;20234;-83
2024/02/11 09:37:59;;;;;;;6.13;4.50;;;;;;;;;;5051185;28;20836;-84
2024/02/11 09:40:26;;;;;;;4.73;3.90;;;;;;;;;;5050749;28;20423;-84
2024/02/11 09:42:53;;;;;;;8.20;3.92;;;;;;;;;;5049035;28;20431;-84
2024/02/11 09:45:20;;;;;;;5.93;3.92;;;;;;;;;;5055372;28;20181;-85
2024/02/11 09:47:50;;;;;;;5.88;3.92;;;;;;;;;;5072671;28;20209;-84
2024/02/11 09:50:21;;;;;;;6.15;4.00;;;;;;;;;;5053652;28;20234;-84
2024/02/11 09:52:47;;;;;;;6.82;4.60;;;;;;;;;;5068194;28;20637;-84
2024/02/11 09:55:17;;;;;;;8.30;4.90;;;;;;;;;;5055878;28;20267;-84
2024/02/11 09:57:43;;;;;;;8.43;4.53;;;;;;;;;;5029858;28;20218;-84
2024/02/11 10:00:09;;;;;;;12.10;4.40;;;;;;;;;;5053688;28;20263;-84
2024/02/11 10:02:37;;;;;;;7.88;5.05;;;;;;;;;;5033629;28;20419;-84
2024/02/11 10:05:06;;;;;;;11.93;4.72;;;;;;;;;;5066034;28;20263;-84
2024/02/11 10:07:34;;;;;;;15.75;4.97;;;;;;;;;;5048156;28;20189;-84
2024/02/11 10:10:02;;;;;;;7.70;5.80;;;;;;;;;;5053911;28;20192;-83
2024/02/11 10:12:29;;;;;;;10.25;5.90;;;;;;;;;;5043147;28;20184;-84
2024/02/11 10:15:00;;;;;;;7.78;5.45;;;;;;;;;;5055366;28;20196;-84
2024/02/11 10:17:31;;;;;;;7.90;4.80;;;;;;;;;;5068845;28;20208;-83
2024/02/11 10:19:59;;;;;;;6.90;4.20;;;;;;;;;;5054575;28;20247;-83
2024/02/11 10:22:27;;;;;;;7.03;3.92;;;;;;;;;;5069225;28;20177;-83
2024/02/11 10:24:53;;;;;;;7.10;5.00;;;;;;;;;;5075362;28;20314;-83
2024/02/11 10:27:19;;;;;;;7.20;3.97;;;;;;;;;;5040128;28;20232;-84
2024/02/11 10:29:45;;;;;;;7.90;4.10;;;;;;;;;;5055474;28;20451;-83
2024/02/11 10:32:14;;;;;;;7.88;4.95;;;;;;;;;;5041489;28;20637;-83
2024/02/11 10:34:42;;;;;;;5.13;3.72;;;;;;;;;;5036532;28;20276;-84
2024/02/11 10:37:09;;;;;;;6.57;4.75;;;;;;;;;;5062279;28;20642;-83
2024/02/11 10:39:39;;;;;;;7.13;4.68;;;;;;;;;;5070276;28;20180;-84
2024/02/11 10:42:08;;;;;;;12.27;6.55;;;;;;;;;;5037780;28;20184;-84
2024/02/11 10:44:34;;;;;;;6.15;4.60;;;;;;;;;;5050159;28;20563;-84
2024/02/11 10:47:00;;;;;;;6.28;4.90;;;;;;;;;;5040344;28;20200;-84
2024/02/11 10:49:26;;;;;;;6.05;4.50;;;;;;;;;;5071355;28;20173;-84
2024/02/11 10:51:57;;;;;;;6.43;3.70;;;;;;;;;;5038237;28;20192;-83
2024/02/11 10:54:25;;;;;;;5.20;3.80;;;;;;;;;;5046213;28;20428;-83
2024/02/11 10:56:52;;;;;;;4.47;3.63;;;;;;;;;;5068603;28;20201;-83
2024/02/11 10:59:27;;;;;;;4.60;3.10;;;;;;;;;;5056842;28;20207;-84
2024/02/11 11:01:56;;;;;;;6.63;4.03;;;;;;;;;;5074903;28;20263;-83
2024/02/11 11:04:23;;;;;;;4.50;3.65;;;;;;;;;;5056306;28;20591;-84
2024/02/11 11:06:51;;;;;;;6.75;5.32;;;;;;;;;;5054042;28;20267;-83
2024/02/11 11:09:18;;;;;;;7.03;3.60;;;;;;;;;;5051147;28;20205;-83
2024/02/11 11:11:44;;;;;;;5.00;3.50;;;;;;;;;;5064114;28;20189;-84
2024/02/11 11:14:11;;;;;;;4.13;2.40;;;;;;;;;;5071892;28;20184;-83
2024/02/11 11:16:44;;;;;;;5.88;2.50;;;;;;;;;;5056190;28;20623;-83
2024/02/11 11:19:11;;;;;;;5.80;3.10;;;;;;;;;;5071447;28;20174;-82
2024/02/11 11:21:37;;;;;;;2.65;1.92;;;;;;;;;;5067799;28;20252;-84
2024/02/11 11:24:03;;;;;;;6.82;2.60;;;;;;;;;;5059015;28;20259;-83
2024/02/11 11:26:29;;;;;;;4.78;2.53;;;;;;;;;;5067693;28;20578;-84
2024/02/11 11:29:02;;;;;;;4.15;2.10;;;;;;;;;;5071559;28;20525;-83
2024/02/11 11:31:31;;;;;;;4.13;1.75;;;;;;;;;;5052152;28;20203;-83
2024/02/11 11:33:57;;;;;;;5.55;2.45;;;;;;;;;;5050131;28;20177;-83
2024/02/11 11:36:26;;;;;;;2.70;1.80;;;;;;;;;;5043101;28;20311;-83
2024/02/11 11:38:52;;;;;;;4.28;1.70;;;;;;;;;;5051790;28;20184;-83
2024/02/11 11:41:18;;;;;;;4.38;1.60;;;;;;;;;;5068684;28;20184;-83
2024/02/11 11:43:44;;;;;;;4.00;1.65;;;;;;;;;;5069627;28;20188;-83
2024/02/11 11:46:11;;;;;;;3.30;1.80;;;;;;;;;;5039456;28;20300;-83
2024/02/11 11:48:37;;;;;;;3.65;2.35;;;;;;;;;;5054514;28;20414;-83
2024/02/11 11:51:06;;;;;;;4.30;2.25;;;;;;;;;;5069284;28;20177;-83
2024/02/11 11:53:32;;;;;;;4.63;1.95;;;;;;;;;;5056854;28;20177;-82
2024/02/11 11:56:02;;;;;;;4.00;2.03;;;;;;;;;;5064010;28;20583;-82
2024/02/11 11:58:30;;;;;;;5.47;1.90;;;;;;;;;;5047719;28;20268;-83
2024/02/11 12:01:02;;;;;;;4.55;1.90;;;;;;;;;;5047663;28;20177;-83
2024/02/11 12:03:29;;;;;;;3.35;1.98;;;;;;;;;;5065256;28;20177;-82
2024/02/11 12:05:55;;;;;;;4.53;1.83;;;;;;;;;;5071151;28;20198;-82
2024/02/11 12:08:22;;;;;;;5.93;1.58;;;;;;;;;;5045425;28;20236;-83
2024/02/11 12:11:03;;;;;;;5.20;1.45;;;;;;;;;;5051050;28;20519;-83
2024/02/11 12:13:32;;;;;;;2.45;1.42;;;;;;;;;;5047559;28;20203;-82
2024/02/11 12:15:59;;;;;;;5.47;1.52;;;;;;;;;;5071144;28;20255;-83
2024/02/11 12:18:26;;;;;;;4.32;1.73;;;;;;;;;;5052653;28;20276;-83
2024/02/11 12:20:55;;;;;;;4.07;1.65;;;;;;;;;;5067703;28;20225;-83
2024/02/11 12:23:23;;;;;;;6.28;2.15;;;;;;;;;;5050075;28;20172;-83
2024/02/11 12:25:56;;;;;;;4.50;1.65;;;;;;;;;;5052105;28;21301;-83
2024/02/11 12:28:32;;;;;;;2.70;1.50;;;;;;;;;;5069662;28;20236;-83
2024/02/11 12:31:11;;;;;;;2.88;1.30;;;;;;;;;;5071359;28;20176;-83
2024/02/11 12:33:41;;;;;;;3.63;1.40;;;;;;;;;;5052230;28;20180;-82
2024/02/11 12:36:11;;;;;;;4.15;1.15;;;;;;;;;;5068543;28;20174;-83
2024/02/11 12:38:42;;;;;;;2.10;1.25;;;;;;;;;;5067784;28;20687;-83
2024/02/11 12:41:09;;;;;;;3.38;1.30;;;;;;;;;;5048539;28;20188;-83
2024/02/11 12:43:35;;;;;;;2.53;1.10;;;;;;;;;;5064631;28;20261;-82
2024/02/11 12:46:02;;;;;;;3.10;1.23;;;;;;;;;;5065833;28;20201;-83
2024/02/11 12:48:29;;;;;;;1.52;0.98;;;;;;;;;;5048172;28;20192;-83
2024/02/11 12:50:55;;;;;;;1.67;0.95;;;;;;;;;;5065980;28;20179;-83
2024/02/11 12:53:21;;;;;;;1.75;0.80;;;;;;;;;;5075009;28;20205;-83
2024/02/11 12:55:47;;;;;;;1.75;0.80;;;;;;;;;;5070929;28;20220;-83
2024/02/11 12:58:13;;;;;;;2.50;0.90;;;;;;;;;;5068539;28;20213;-83
2024/02/11 13:00:39;;;;;;;3.08;1.10;;;;;;;;;;5059857;28;20537;-83
2024/02/11 13:03:07;;;;;;;3.47;1.00;;;;;;;;;;5042223;28;20230;-83
2024/02/11 13:05:33;;;;;;;1.88;1.30;;;;;;;;;;5046617;28;20189;-83
2024/02/11 13:07:59;;;;;;;1.40;1.00;;;;;;;;;;5040575;28;20627;-83
2024/02/11 13:10:24;;;;;;;2.50;1.27;;;;;;;;;;5033704;28;20545;-83
2024/02/11 13:12:52;;;;;;;1.42;0.82;;;;;;;;;;5052408;28;20661;-84
2024/02/11 13:15:18;;;;;;;3.75;1.40;;;;;;;;;;5045834;28;20181;-82
2024/02/11 13:17:44;;;;;;;2.75;1.65;;;;;;;;;;5063506;28;20197;-83
2024/02/11 13:20:13;;;;;;;2.13;1.60;;;;;;;;;;5048366;28;20191;-84
2024/02/11 13:22:39;;;;;;;3.55;1.20;;;;;;;;;;5052462;28;20507;-81
2024/02/11 13:25:08;;;;;;;1.83;0.95;;;;;;;;;;5056440;28;20192;-83
2024/02/11 13:27:34;;;;;;;5.55;1.45;;;;;;;;;;5050041;28;20596;-83
2024/02/11 13:30:01;;;;;;;2.38;1.25;;;;;;;;;;5030185;28;20200;-83
2024/02/11 13:32:27;;;;;;;3.45;1.13;;;;;;;;;;5054013;28;20646;-83
2024/02/11 13:34:53;;;;;;;6.45;1.15;;;;;;;;;;5072029;28;20208;-83
2024/02/11 13:37:19;;;;;;;1.93;1.60;;;;;;;;;;5062423;28;20256;-83
2024/02/11 13:39:46;;;;;;;2.35;0.95;;;;;;;;;;5044131;28;20416;-83
2024/02/11 13:42:13;;;;;;;3.03;1.70;;;;;;;;;;5036718;28;20280;-82
2024/02/11 13:44:39;;;;;;;1.30;0.90;;;;;;;;;;5038927;28;20234;-83
2024/02/11 13:47:09;;;;;;;6.10;1.33;;;;;;;;;;5053618;28;20181;-83
2024/02/11 13:49:35;;;;;;;1.10;1.00;;;;;;;;;;5068564;28;20829;-83
2024/02/11 13:52:01;;;;;;;2.08;1.00;;;;;;;;;;5046400;28;20574;-83
2024/02/11 13:54:28;;;;;;;2.60;0.77;;;;;;;;;;5055901;28;20177;-83
2024/02/11 13:56:54;;;;;;;1.42;0.82;;;;;;;;;;5066319;28;20228;-82
2024/02/11 13:59:21;;;;;;;2.63;0.80;;;;;;;;;;5051581;28;20196;-84
2024/02/11 14:01:53;;;;;;;2.90;1.25;;;;;;;;;;5067355;28;20255;-83
2024/02/11 14:04:19;;;;;;;2.53;1.02;;;;;;;;;;5077790;28;20185;-83
2024/02/11 14:06:45;;;;;;;2.15;0.70;;;;;;;;;;5038580;28;20207;-83
2024/02/11 14:09:12;;;;;;;3.22;0.80;;;;;;;;;;5069096;28;20185;-84
2024/02/11 14:11:41;;;;;;;4.72;1.08;;;;;;;;;;5073420;28;20212;-84
2024/02/11 14:14:11;;;;;;;1.63;0.90;;;;;;;;;;5047931;28;20648;-83
2024/02/11 14:16:37;;;;;;;3.10;1.00;;;;;;;;;;5058976;28;20205;-83
2024/02/11 14:19:05;;;;;;;2.65;0.90;;;;;;;;;;5074783;28;20173;-83
2024/02/11 14:21:35;;;;;;;2.90;0.80;;;;;;;;;;5076733;28;20173;-83
2024/02/11 14:24:01;;;;;;;1.10;0.70;;;;;;;;;;5069641;28;20181;-83
2024/02/11 14:26:28;;;;;;;1.15;0.77;;;;;;;;;;5072839;28;20165;-83
2024/02/11 14:28:54;;;;;;;2.00;0.70;;;;;;;;;;5056192;28;20657;-84
2024/02/11 14:31:20;;;;;;;1.73;0.90;;;;;;;;;;5076458;28;20177;-83
2024/02/11 14:33:46;;;;;;;1.20;0.77;;;;;;;;;;5074905;28;20597;-83
2024/02/11 14:36:15;;;;;;;1.88;0.90;;;;;;;;;;5058442;28;20551;-84